Terminal Aerodrome Forecast
Issued by NWS Albany, NY

Home | Current Version | Previous Version | Text Only | Print | Product List | Glossary On
Versions: 1 2 3 4 5 6 7 8 9 10 11 12 13
000
FTUS41 KALY 261140
TAFGFL
TAF
KGFL 261140Z 2612/2712 35006KT 5SM -RA BR SCT008 OVC025
      TEMPO 2612/2614 3SM -RA BR BKN008
     FM262100 32007KT P6SM VCSH OVC015 PROB30 2621/2624 4SM -SHRA
      OVC007
     FM270000 32005KT P6SM OVC020
     FM270600 VRB03KT P6SM BKN020 OVC030=

USA.gov is the U.S. government's official web portal to all federal, state and local government web resources and services.